Nearby METAR Reports

 

KBFI - Boeing Field, Seattle, WA, USA
Distance from station: NE 9mi, 14km
Updated: 2017-11-19 12:53
Overcast
Overcast
 Wind from SSW
Wind: SSW 6 mph , 9 km/h
Temperature: 52°F , 11°C
Dew Point: 36°F , 2°C
Humidity: 54%
Barometer: 29.78 inHg , 1008.5 hPa
Clouds: Overcast
Visibility: 10 miles , 16 km
Cloud details: Overcast 5500 ft
2017/11/19 20:53 KBFI 192053Z 20005KT 10SM OVC055 11/02 A2978 RMK AO2 PRESFR SLP082 T01060017 58044 $
KSEA - Seattle-Tacoma, Burien, WA, USA
Distance from station: N 9mi, 14km
Updated: 2017-11-19 12:53
Overcast
Overcast
 Wind from S
Wind: S 8 mph , 13 km/h
Temperature: 52°F , 11°C
Dew Point: 34°F , 1°C
Humidity: 50%
Barometer: 29.77 inHg , 1008.1 hPa
Clouds: Overcast
Visibility: 10 miles , 16 km
Cloud details: Overcast 5500 ft
2017/11/19 20:53 KSEA 192053Z 18007KT 10SM OVC055 11/01 A2977 RMK AO2 SLP090 T01060011 58041
 
KRNT - Renton, WA, USA
Distance from station: NNW 14mi, 23km
Updated: 2017-11-19 12:53
Overcast
Overcast
 Wind from SSE
Wind: SSE 10 mph , 17 km/h
Temperature: 55°F , 13°C
Dew Point: 28°F , -2°C
Humidity: 36%
Barometer: 29.77 inHg , 1008.1 hPa
Clouds: Overcast
Visibility: 10 miles , 16 km
Cloud details: Overcast 6000 ft
2017/11/19 20:53 KRNT 192053Z 16009KT 10SM OVC060 13/M02 A2977 RMK AO2 PRESFR SLP086 T01281022 58043 $